sensor_id;sensor_type;location;lat;lon;timestamp;pressure;altitude;pressure_sealevel;temperature;humidity
78409;BME280;67697;50.750;-3.270;2023-06-04T00:02:02;101587.97;;;15.76;51.83
78409;BME280;67697;50.750;-3.270;2023-06-04T00:04:27;101594.69;;;15.12;52.99
78409;BME280;67697;50.750;-3.270;2023-06-04T00:06:54;101596.36;;;15.09;53.81
78409;BME280;67697;50.750;-3.270;2023-06-04T00:09:18;101596.32;;;13.98;55.97
78409;BME280;67697;50.750;-3.270;2023-06-04T00:11:44;101595.73;;;14.81;54.78
78409;BME280;67697;50.750;-3.270;2023-06-04T00:14:09;101596.83;;;14.26;56.10
78409;BME280;67697;50.750;-3.270;2023-06-04T00:16:34;101594.81;;;14.65;54.58
78409;BME280;67697;50.750;-3.270;2023-06-04T00:19:00;101595.44;;;14.06;55.96
78409;BME280;67697;50.750;-3.270;2023-06-04T00:21:25;101593.87;;;13.91;56.34
78409;BME280;67697;50.750;-3.270;2023-06-04T00:23:51;101594.90;;;15.33;53.59
78409;BME280;67697;50.750;-3.270;2023-06-04T00:26:16;101594.21;;;13.64;57.50
78409;BME280;67697;50.750;-3.270;2023-06-04T00:28:42;101594.76;;;14.60;54.37
78409;BME280;67697;50.750;-3.270;2023-06-04T00:31:07;101594.01;;;15.54;52.21
78409;BME280;67697;50.750;-3.270;2023-06-04T00:33:33;101591.13;;;15.14;52.38
78409;BME280;67697;50.750;-3.270;2023-06-04T00:35:59;101588.65;;;15.29;52.51
78409;BME280;67697;50.750;-3.270;2023-06-04T00:38:24;101586.88;;;15.39;52.29
78409;BME280;67697;50.750;-3.270;2023-06-04T00:40:50;101582.43;;;15.55;52.00
78409;BME280;67697;50.750;-3.270;2023-06-04T00:43:15;101585.56;;;14.69;53.82
78409;BME280;67697;50.750;-3.270;2023-06-04T00:45:41;101581.75;;;15.50;52.16
78409;BME280;67697;50.750;-3.270;2023-06-04T00:48:06;101578.73;;;15.36;52.55
78409;BME280;67697;50.750;-3.270;2023-06-04T00:50:32;101579.02;;;14.09;54.54
78409;BME280;67697;50.750;-3.270;2023-06-04T00:52:57;101579.03;;;14.17;54.34
78409;BME280;67697;50.750;-3.270;2023-06-04T00:55:23;101574.68;;;13.90;55.73
78409;BME280;67697;50.750;-3.270;2023-06-04T00:57:49;101571.12;;;15.00;52.81
78409;BME280;67697;50.750;-3.270;2023-06-04T01:00:15;101572.02;;;14.69;53.73
78409;BME280;67697;50.750;-3.270;2023-06-04T01:02:41;101570.26;;;14.76;51.52
78409;BME280;67697;50.750;-3.270;2023-06-04T01:05:14;101572.16;;;15.12;51.97
78409;BME280;67697;50.750;-3.270;2023-06-04T01:07:31;101571.91;;;15.16;51.60
78409;BME280;67697;50.750;-3.270;2023-06-04T01:09:57;101568.27;;;14.54;53.23
78409;BME280;67697;50.750;-3.270;2023-06-04T01:12:22;101565.14;;;14.50;52.82
78409;BME280;67697;50.750;-3.270;2023-06-04T01:14:47;101565.05;;;14.18;53.37
78409;BME280;67697;50.750;-3.270;2023-06-04T01:17:19;101561.71;;;15.54;50.75
78409;BME280;67697;50.750;-3.270;2023-06-04T01:19:52;101562.56;;;14.20;52.51
78409;BME280;67697;50.750;-3.270;2023-06-04T01:22:09;101565.41;;;13.47;53.95
78409;BME280;67697;50.750;-3.270;2023-06-04T01:24:34;101562.41;;;14.49;52.10
78409;BME280;67697;50.750;-3.270;2023-06-04T01:26:54;101558.47;;;14.72;51.24
78409;BME280;67697;50.750;-3.270;2023-06-04T01:29:19;101557.73;;;14.46;51.86
78409;BME280;67697;50.750;-3.270;2023-06-04T01:31:44;101556.28;;;14.41;50.72
78409;BME280;67697;50.750;-3.270;2023-06-04T01:34:09;101554.90;;;13.78;51.65
78409;BME280;67697;50.750;-3.270;2023-06-04T01:36:35;101553.60;;;13.32;52.01
78409;BME280;67697;50.750;-3.270;2023-06-04T01:39:00;101553.69;;;13.64;50.32
78409;BME280;67697;50.750;-3.270;2023-06-04T01:41:26;101553.34;;;14.35;49.19
78409;BME280;67697;50.750;-3.270;2023-06-04T01:43:51;101546.76;;;15.33;47.23
78409;BME280;67697;50.750;-3.270;2023-06-04T01:46:17;101548.44;;;14.37;48.70
78409;BME280;67697;50.750;-3.270;2023-06-04T01:48:43;101548.16;;;14.34;49.23
78409;BME280;67697;50.750;-3.270;2023-06-04T01:51:08;101550.82;;;14.24;49.10
78409;BME280;67697;50.750;-3.270;2023-06-04T01:53:33;101549.10;;;14.91;47.45
78409;BME280;67697;50.750;-3.270;2023-06-04T01:55:59;101549.23;;;14.43;47.55
78409;BME280;67697;50.750;-3.270;2023-06-04T01:58:24;101543.19;;;16.39;44.02
78409;BME280;67697;50.750;-3.270;2023-06-04T02:00:50;101542.91;;;15.78;45.28
78409;BME280;67697;50.750;-3.270;2023-06-04T02:03:15;101543.29;;;15.39;45.61
78409;BME280;67697;50.750;-3.270;2023-06-04T02:05:40;101551.41;;;14.17;49.37
78409;BME280;67697;50.750;-3.270;2023-06-04T02:08:06;101551.60;;;14.97;48.36
78409;BME280;67697;50.750;-3.270;2023-06-04T02:10:32;101551.62;;;14.65;48.91
78409;BME280;67697;50.750;-3.270;2023-06-04T02:12:59;101558.49;;;14.66;49.14
78409;BME280;67697;50.750;-3.270;2023-06-04T02:15:24;101558.76;;;14.41;52.56
78409;BME280;67697;50.750;-3.270;2023-06-04T02:17:48;101559.41;;;15.19;50.80
78409;BME280;67697;50.750;-3.270;2023-06-04T02:20:14;101556.53;;;15.09;50.04
78409;BME280;67697;50.750;-3.270;2023-06-04T02:22:39;101553.77;;;15.35;49.70
78409;BME280;67697;50.750;-3.270;2023-06-04T02:25:05;101553.00;;;14.60;51.55
78409;BME280;67697;50.750;-3.270;2023-06-04T02:27:30;101548.81;;;14.84;51.67
78409;BME280;67697;50.750;-3.270;2023-06-04T02:29:56;101551.65;;;14.34;52.26
78409;BME280;67697;50.750;-3.270;2023-06-04T02:32:21;101551.19;;;14.59;50.61
78409;BME280;67697;50.750;-3.270;2023-06-04T02:34:47;101550.38;;;14.16;52.41
78409;BME280;67697;50.750;-3.270;2023-06-04T02:37:12;101552.15;;;13.89;52.90
78409;BME280;67697;50.750;-3.270;2023-06-04T02:39:37;101551.25;;;14.22;51.84
78409;BME280;67697;50.750;-3.270;2023-06-04T02:42:03;101551.62;;;14.01;52.63
78409;BME280;67697;50.750;-3.270;2023-06-04T02:44:28;101552.91;;;13.89;53.42
78409;BME280;67697;50.750;-3.270;2023-06-04T02:46:54;101552.29;;;13.97;53.80
78409;BME280;67697;50.750;-3.270;2023-06-04T02:49:19;101554.93;;;15.12;50.82
78409;BME280;67697;50.750;-3.270;2023-06-04T02:51:45;101551.35;;;15.29;50.44
78409;BME280;67697;50.750;-3.270;2023-06-04T02:54:11;101554.97;;;14.42;52.79
78409;BME280;67697;50.750;-3.270;2023-06-04T02:56:37;101551.43;;;13.87;54.31
78409;BME280;67697;50.750;-3.270;2023-06-04T02:59:02;101550.23;;;13.45;55.50
78409;BME280;67697;50.750;-3.270;2023-06-04T03:01:27;101551.23;;;13.24;56.71
78409;BME280;67697;50.750;-3.270;2023-06-04T03:03:53;101554.29;;;13.46;55.73
78409;BME280;67697;50.750;-3.270;2023-06-04T03:06:19;101552.91;;;13.09;57.48
78409;BME280;67697;50.750;-3.270;2023-06-04T03:08:43;101550.70;;;13.98;54.44
78409;BME280;67697;50.750;-3.270;2023-06-04T03:11:09;101550.03;;;12.81;57.13
78409;BME280;67697;50.750;-3.270;2023-06-04T03:13:35;101550.56;;;12.86;57.57
78409;BME280;67697;50.750;-3.270;2023-06-04T03:16:00;101549.37;;;13.22;56.69
78409;BME280;67697;50.750;-3.270;2023-06-04T03:18:25;101547.05;;;13.61;54.94
78409;BME280;67697;50.750;-3.270;2023-06-04T03:20:50;101548.64;;;13.52;55.27
78409;BME280;67697;50.750;-3.270;2023-06-04T03:23:16;101547.33;;;13.42;56.25
78409;BME280;67697;50.750;-3.270;2023-06-04T03:25:41;101548.90;;;13.27;55.47
78409;BME280;67697;50.750;-3.270;2023-06-04T03:28:07;101552.16;;;13.26;54.94
78409;BME280;67697;50.750;-3.270;2023-06-04T03:30:32;101548.66;;;13.25;54.05
78409;BME280;67697;50.750;-3.270;2023-06-04T03:32:58;101546.94;;;13.60;53.57
78409;BME280;67697;50.750;-3.270;2023-06-04T03:35:23;101545.51;;;13.18;54.32
78409;BME280;67697;50.750;-3.270;2023-06-04T03:37:48;101545.91;;;12.88;55.47
78409;BME280;67697;50.750;-3.270;2023-06-04T03:40:14;101545.94;;;12.43;55.60
78409;BME280;67697;50.750;-3.270;2023-06-04T03:42:40;101542.38;;;12.47;56.95
78409;BME280;67697;50.750;-3.270;2023-06-04T03:45:06;101540.15;;;12.37;55.63
78409;BME280;67697;50.750;-3.270;2023-06-04T03:47:30;101538.54;;;11.88;56.45
78409;BME280;67697;50.750;-3.270;2023-06-04T03:49:55;101539.01;;;11.81;56.79
78409;BME280;67697;50.750;-3.270;2023-06-04T03:52:21;101536.01;;;12.95;54.55
78409;BME280;67697;50.750;-3.270;2023-06-04T03:54:46;101538.37;;;11.68;56.81
78409;BME280;67697;50.750;-3.270;2023-06-04T03:57:12;101537.44;;;12.76;53.89
78409;BME280;67697;50.750;-3.270;2023-06-04T03:59:37;101539.79;;;11.80;54.62
78409;BME280;67697;50.750;-3.270;2023-06-04T04:02:03;101536.25;;;12.91;51.50
78409;BME280;67697;50.750;-3.270;2023-06-04T04:04:28;101534.93;;;13.20;50.95
78409;BME280;67697;50.750;-3.270;2023-06-04T04:06:54;101537.56;;;11.70;52.85
78409;BME280;67697;50.750;-3.270;2023-06-04T04:09:19;101535.86;;;12.86;51.89
78409;BME280;67697;50.750;-3.270;2023-06-04T04:11:45;101537.57;;;11.45;55.02
78409;BME280;67697;50.750;-3.270;2023-06-04T04:14:10;101538.99;;;12.23;53.86
78409;BME280;67697;50.750;-3.270;2023-06-04T04:16:36;101542.12;;;11.72;54.96
78409;BME280;67697;50.750;-3.270;2023-06-04T04:19:02;101543.78;;;13.45;51.05
78409;BME280;67697;50.750;-3.270;2023-06-04T04:21:28;101548.95;;;13.30;50.12
78409;BME280;67697;50.750;-3.270;2023-06-04T04:23:53;101548.60;;;11.97;52.70
78409;BME280;67697;50.750;-3.270;2023-06-04T04:26:20;101550.96;;;12.19;53.27
78409;BME280;67697;50.750;-3.270;2023-06-04T04:28:45;101550.73;;;12.09;53.27
78409;BME280;67697;50.750;-3.270;2023-06-04T04:31:10;101554.10;;;11.01;57.57
78409;BME280;67697;50.750;-3.270;2023-06-04T04:33:36;101549.30;;;11.66;56.24
78409;BME280;67697;50.750;-3.270;2023-06-04T04:36:01;101557.54;;;10.05;60.57
78409;BME280;67697;50.750;-3.270;2023-06-04T04:38:27;101554.22;;;11.01;58.22
78409;BME280;67697;50.750;-3.270;2023-06-04T04:40:52;101558.44;;;10.11;62.22
78409;BME280;67697;50.750;-3.270;2023-06-04T04:43:29;101562.19;;;10.21;60.80
78409;BME280;67697;50.750;-3.270;2023-06-04T04:45:43;101563.62;;;10.00;60.29
78409;BME280;67697;50.750;-3.270;2023-06-04T04:48:08;101564.25;;;11.31;57.78
78409;BME280;67697;50.750;-3.270;2023-06-04T04:50:34;101567.71;;;11.02;58.64
78409;BME280;67697;50.750;-3.270;2023-06-04T04:53:00;101565.31;;;11.92;56.68
78409;BME280;67697;50.750;-3.270;2023-06-04T04:55:25;101561.83;;;11.63;55.73
78409;BME280;67697;50.750;-3.270;2023-06-04T04:57:51;101558.00;;;12.10;54.67
78409;BME280;67697;50.750;-3.270;2023-06-04T05:00:17;101557.39;;;11.49;56.49
78409;BME280;67697;50.750;-3.270;2023-06-04T05:02:42;101557.49;;;11.27;57.87
78409;BME280;67697;50.750;-3.270;2023-06-04T05:05:08;101556.50;;;10.94;58.44
78409;BME280;67697;50.750;-3.270;2023-06-04T05:07:33;101554.33;;;10.78;57.93
78409;BME280;67697;50.750;-3.270;2023-06-04T05:09:58;101554.19;;;10.96;58.51
78409;BME280;67697;50.750;-3.270;2023-06-04T05:12:25;101552.16;;;11.01;58.25
78409;BME280;67697;50.750;-3.270;2023-06-04T05:14:50;101553.76;;;10.46;59.04
78409;BME280;67697;50.750;-3.270;2023-06-04T05:17:15;101555.86;;;10.51;59.32
78409;BME280;67697;50.750;-3.270;2023-06-04T05:19:41;101552.67;;;10.63;58.74
78409;BME280;67697;50.750;-3.270;2023-06-04T05:22:07;101549.37;;;10.13;59.44
78409;BME280;67697;50.750;-3.270;2023-06-04T05:24:32;101546.49;;;11.00;57.86
78409;BME280;67697;50.750;-3.270;2023-06-04T05:26:58;101551.06;;;10.45;58.78
78409;BME280;67697;50.750;-3.270;2023-06-04T05:29:24;101548.38;;;10.58;58.83
78409;BME280;67697;50.750;-3.270;2023-06-04T05:31:49;101549.99;;;10.77;57.85
78409;BME280;67697;50.750;-3.270;2023-06-04T05:34:15;101547.20;;;10.66;58.21
78409;BME280;67697;50.750;-3.270;2023-06-04T05:36:41;101546.91;;;10.48;58.31
78409;BME280;67697;50.750;-3.270;2023-06-04T05:39:06;101540.86;;;10.91;56.72
78409;BME280;67697;50.750;-3.270;2023-06-04T05:41:32;101541.29;;;10.80;57.29
78409;BME280;67697;50.750;-3.270;2023-06-04T05:43:58;101541.32;;;11.09;56.64
78409;BME280;67697;50.750;-3.270;2023-06-04T05:46:23;101538.04;;;11.27;55.04
78409;BME280;67697;50.750;-3.270;2023-06-04T05:48:49;101541.23;;;11.06;54.88
78409;BME280;67697;50.750;-3.270;2023-06-04T05:51:15;101542.17;;;11.26;54.09
78409;BME280;67697;50.750;-3.270;2023-06-04T05:53:41;101540.55;;;11.78;53.00
78409;BME280;67697;50.750;-3.270;2023-06-04T05:56:06;101539.84;;;11.60;52.76
78409;BME280;67697;50.750;-3.270;2023-06-04T05:58:32;101536.78;;;11.66;52.65
78409;BME280;67697;50.750;-3.270;2023-06-04T06:00:57;101545.18;;;10.86;53.87
78409;BME280;67697;50.750;-3.270;2023-06-04T06:03:22;101543.20;;;11.98;51.79
78409;BME280;67697;50.750;-3.270;2023-06-04T06:05:48;101541.95;;;11.80;51.55
78409;BME280;67697;50.750;-3.270;2023-06-04T06:08:14;101543.25;;;12.71;50.87
78409;BME280;67697;50.750;-3.270;2023-06-04T06:10:38;101542.92;;;12.57;50.23
78409;BME280;67697;50.750;-3.270;2023-06-04T06:13:04;101539.40;;;12.84;48.91
78409;BME280;67697;50.750;-3.270;2023-06-04T06:15:29;101537.47;;;12.86;48.69
78409;BME280;67697;50.750;-3.270;2023-06-04T06:17:55;101541.78;;;13.44;48.42
78409;BME280;67697;50.750;-3.270;2023-06-04T06:20:21;101546.41;;;12.87;48.89
78409;BME280;67697;50.750;-3.270;2023-06-04T06:22:47;101546.09;;;12.51;49.22
78409;BME280;67697;50.750;-3.270;2023-06-04T06:25:12;101548.55;;;12.17;49.54
78409;BME280;67697;50.750;-3.270;2023-06-04T06:27:38;101552.13;;;12.47;48.99
78409;BME280;67697;50.750;-3.270;2023-06-04T06:30:04;101547.66;;;12.88;47.80
78409;BME280;67697;50.750;-3.270;2023-06-04T06:32:29;101546.42;;;13.12;47.30
78409;BME280;67697;50.750;-3.270;2023-06-04T06:34:55;101543.42;;;13.50;47.31
78409;BME280;67697;50.750;-3.270;2023-06-04T06:37:20;101541.24;;;13.16;47.30
78409;BME280;67697;50.750;-3.270;2023-06-04T06:39:46;101541.36;;;12.68;48.10
78409;BME280;67697;50.750;-3.270;2023-06-04T06:42:11;101544.25;;;12.57;48.38
78409;BME280;67697;50.750;-3.270;2023-06-04T06:44:37;101539.65;;;13.08;48.18
78409;BME280;67697;50.750;-3.270;2023-06-04T06:47:03;101543.00;;;13.73;45.75
78409;BME280;67697;50.750;-3.270;2023-06-04T06:49:28;101541.61;;;13.34;47.22
78409;BME280;67697;50.750;-3.270;2023-06-04T06:51:53;101536.81;;;13.00;46.64
78409;BME280;67697;50.750;-3.270;2023-06-04T06:54:19;101540.03;;;13.55;46.86
78409;BME280;67697;50.750;-3.270;2023-06-04T06:56:45;101544.22;;;12.86;48.27
78409;BME280;67697;50.750;-3.270;2023-06-04T06:59:10;101542.18;;;12.94;48.05
78409;BME280;67697;50.750;-3.270;2023-06-04T07:01:35;101545.76;;;13.40;47.06
78409;BME280;67697;50.750;-3.270;2023-06-04T07:04:01;101546.47;;;13.74;46.16
78409;BME280;67697;50.750;-3.270;2023-06-04T07:06:27;101549.20;;;13.96;45.35
78409;BME280;67697;50.750;-3.270;2023-06-04T07:08:52;101549.22;;;13.50;45.41
78409;BME280;67697;50.750;-3.270;2023-06-04T07:11:18;101555.08;;;13.88;45.78
78409;BME280;67697;50.750;-3.270;2023-06-04T07:13:44;101553.70;;;13.69;46.45
78409;BME280;67697;50.750;-3.270;2023-06-04T07:16:09;101558.34;;;13.32;46.32
78409;BME280;67697;50.750;-3.270;2023-06-04T07:18:35;101559.28;;;13.27;46.75
78409;BME280;67697;50.750;-3.270;2023-06-04T07:21:01;101559.76;;;13.20;47.26
78409;BME280;67697;50.750;-3.270;2023-06-04T07:23:26;101560.09;;;14.29;44.55
78409;BME280;67697;50.750;-3.270;2023-06-04T07:25:51;101558.45;;;13.89;44.64
78409;BME280;67697;50.750;-3.270;2023-06-04T07:28:17;101561.09;;;14.03;45.12
78409;BME280;67697;50.750;-3.270;2023-06-04T07:30:45;101561.72;;;15.39;42.23
78409;BME280;67697;50.750;-3.270;2023-06-04T07:33:08;101559.65;;;14.30;44.68
78409;BME280;67697;50.750;-3.270;2023-06-04T07:35:34;101561.99;;;15.11;42.99
78409;BME280;67697;50.750;-3.270;2023-06-04T07:38:00;101566.60;;;14.37;44.06
78409;BME280;67697;50.750;-3.270;2023-06-04T07:40:25;101565.10;;;15.09;43.77
78409;BME280;67697;50.750;-3.270;2023-06-04T07:42:50;101561.51;;;14.51;44.02
78409;BME280;67697;50.750;-3.270;2023-06-04T07:45:15;101556.28;;;15.51;42.23
78409;BME280;67697;50.750;-3.270;2023-06-04T07:47:41;101560.47;;;14.74;42.50
78409;BME280;67697;50.750;-3.270;2023-06-04T07:50:07;101552.70;;;14.13;43.24
78409;BME280;67697;50.750;-3.270;2023-06-04T07:52:32;101557.05;;;14.99;43.99
78409;BME280;67697;50.750;-3.270;2023-06-04T07:55:00;101554.52;;;14.73;43.30
78409;BME280;67697;50.750;-3.270;2023-06-04T07:57:23;101555.83;;;15.19;42.82
78409;BME280;67697;50.750;-3.270;2023-06-04T07:59:50;101551.70;;;15.96;41.23
78409;BME280;67697;50.750;-3.270;2023-06-04T08:02:14;101551.58;;;16.01;40.74
78409;BME280;67697;50.750;-3.270;2023-06-04T08:04:40;101563.82;;;15.68;41.16
78409;BME280;67697;50.750;-3.270;2023-06-04T08:07:05;101559.10;;;16.13;40.58
78409;BME280;67697;50.750;-3.270;2023-06-04T08:09:31;101559.56;;;16.05;39.83
78409;BME280;67697;50.750;-3.270;2023-06-04T08:11:57;101561.13;;;16.58;39.57
78409;BME280;67697;50.750;-3.270;2023-06-04T08:14:22;101562.62;;;16.24;40.49
78409;BME280;67697;50.750;-3.270;2023-06-04T08:16:47;101563.76;;;16.82;39.77
78409;BME280;67697;50.750;-3.270;2023-06-04T08:19:13;101565.92;;;16.32;40.74
78409;BME280;67697;50.750;-3.270;2023-06-04T08:21:39;101568.36;;;16.14;40.96
78409;BME280;67697;50.750;-3.270;2023-06-04T08:24:04;101578.78;;;15.78;40.95
78409;BME280;67697;50.750;-3.270;2023-06-04T08:26:30;101569.99;;;15.88;41.66
78409;BME280;67697;50.750;-3.270;2023-06-04T08:28:55;101572.64;;;16.47;40.44
78409;BME280;67697;50.750;-3.270;2023-06-04T08:31:21;101571.03;;;16.04;41.37
78409;BME280;67697;50.750;-3.270;2023-06-04T08:33:47;101574.98;;;15.71;40.43
78409;BME280;67697;50.750;-3.270;2023-06-04T08:36:12;101577.25;;;15.52;41.54
78409;BME280;67697;50.750;-3.270;2023-06-04T08:38:38;101579.00;;;15.80;40.21
78409;BME280;67697;50.750;-3.270;2023-06-04T08:41:11;101575.28;;;15.76;41.12
78409;BME280;67697;50.750;-3.270;2023-06-04T08:43:29;101577.30;;;16.12;41.16
78409;BME280;67697;50.750;-3.270;2023-06-04T08:45:58;101579.41;;;17.48;38.63
78409;BME280;67697;50.750;-3.270;2023-06-04T08:48:21;101584.41;;;16.80;40.38
78409;BME280;67697;50.750;-3.270;2023-06-04T08:50:47;101583.20;;;17.48;39.08
78409;BME280;67697;50.750;-3.270;2023-06-04T08:53:13;101580.37;;;17.88;38.02
78409;BME280;67697;50.750;-3.270;2023-06-04T08:55:37;101584.53;;;17.53;38.02
78409;BME280;67697;50.750;-3.270;2023-06-04T08:58:02;101582.77;;;17.49;37.24
78409;BME280;67697;50.750;-3.270;2023-06-04T09:00:28;101578.89;;;17.66;38.49
78409;BME280;67697;50.750;-3.270;2023-06-04T09:02:53;101577.33;;;18.11;37.61
78409;BME280;67697;50.750;-3.270;2023-06-04T09:05:21;101574.04;;;17.20;36.84
78409;BME280;67697;50.750;-3.270;2023-06-04T09:07:46;101577.12;;;17.50;37.98
78409;BME280;67697;50.750;-3.270;2023-06-04T09:10:10;101578.94;;;17.73;37.43
78409;BME280;67697;50.750;-3.270;2023-06-04T09:12:36;101580.45;;;17.73;38.58
78409;BME280;67697;50.750;-3.270;2023-06-04T09:15:01;101584.42;;;17.25;37.72
78409;BME280;67697;50.750;-3.270;2023-06-04T09:17:27;101585.69;;;17.06;38.41
78409;BME280;67697;50.750;-3.270;2023-06-04T09:19:51;101581.98;;;17.10;37.95
78409;BME280;67697;50.750;-3.270;2023-06-04T09:22:17;101584.49;;;17.16;38.06
78409;BME280;67697;50.750;-3.270;2023-06-04T09:24:44;101582.17;;;16.86;38.67
78409;BME280;67697;50.750;-3.270;2023-06-04T09:27:10;101582.99;;;17.57;38.40
78409;BME280;67697;50.750;-3.270;2023-06-04T09:29:34;101588.05;;;17.54;37.63
78409;BME280;67697;50.750;-3.270;2023-06-04T09:32:00;101583.21;;;17.83;37.36
78409;BME280;67697;50.750;-3.270;2023-06-04T09:34:27;101588.72;;;18.37;38.53
78409;BME280;67697;50.750;-3.270;2023-06-04T09:36:50;101582.28;;;18.74;36.47
78409;BME280;67697;50.750;-3.270;2023-06-04T09:39:16;101584.19;;;17.92;36.74
78409;BME280;67697;50.750;-3.270;2023-06-04T09:41:41;101592.20;;;17.62;36.31
78409;BME280;67697;50.750;-3.270;2023-06-04T09:44:07;101592.54;;;17.24;37.06
78409;BME280;67697;50.750;-3.270;2023-06-04T09:46:32;101590.97;;;17.48;36.94
78409;BME280;67697;50.750;-3.270;2023-06-04T09:49:02;101591.16;;;17.88;36.75
78409;BME280;67697;50.750;-3.270;2023-06-04T09:51:23;101593.67;;;17.92;36.51
78409;BME280;67697;50.750;-3.270;2023-06-04T09:53:53;101591.92;;;18.60;36.76
78409;BME280;67697;50.750;-3.270;2023-06-04T09:56:14;101592.18;;;18.54;36.14
78409;BME280;67697;50.750;-3.270;2023-06-04T09:58:41;101592.19;;;18.04;35.99
78409;BME280;67697;50.750;-3.270;2023-06-04T10:01:06;101596.06;;;17.87;35.46
78409;BME280;67697;50.750;-3.270;2023-06-04T10:03:32;101596.95;;;18.74;35.43
78409;BME280;67697;50.750;-3.270;2023-06-04T10:05:57;101603.57;;;18.71;36.33
78409;BME280;67697;50.750;-3.270;2023-06-04T10:08:22;101599.41;;;17.57;36.23
78409;BME280;67697;50.750;-3.270;2023-06-04T10:10:50;101602.91;;;18.48;36.44
78409;BME280;67697;50.750;-3.270;2023-06-04T10:13:16;101607.53;;;18.41;36.24
78409;BME280;67697;50.750;-3.270;2023-06-04T10:15:38;101611.74;;;17.83;35.94
78409;BME280;67697;50.750;-3.270;2023-06-04T10:18:04;101604.81;;;18.38;35.89
78409;BME280;67697;50.750;-3.270;2023-06-04T10:20:30;101605.55;;;18.82;35.95
78409;BME280;67697;50.750;-3.270;2023-06-04T10:22:55;101607.52;;;18.18;35.75
78409;BME280;67697;50.750;-3.270;2023-06-04T10:25:20;101604.14;;;19.28;33.97
78409;BME280;67697;50.750;-3.270;2023-06-04T10:27:46;101607.19;;;18.49;34.22
78409;BME280;67697;50.750;-3.270;2023-06-04T10:30:12;101611.03;;;18.35;35.65
78409;BME280;67697;50.750;-3.270;2023-06-04T10:32:37;101618.78;;;17.18;37.47
78409;BME280;67697;50.750;-3.270;2023-06-04T10:35:04;101619.62;;;18.25;39.11
78409;BME280;67697;50.750;-3.270;2023-06-04T10:37:28;101621.92;;;19.52;34.81
78409;BME280;67697;50.750;-3.270;2023-06-04T10:39:56;101627.89;;;19.08;34.24
78409;BME280;67697;50.750;-3.270;2023-06-04T10:42:20;101626.52;;;18.41;36.29
78409;BME280;67697;50.750;-3.270;2023-06-04T10:44:46;101624.79;;;18.14;36.02
78409;BME280;67697;50.750;-3.270;2023-06-04T10:47:19;101621.95;;;18.26;35.61
78409;BME280;67697;50.750;-3.270;2023-06-04T10:49:36;101622.59;;;19.25;34.59
78409;BME280;67697;50.750;-3.270;2023-06-04T10:52:10;101619.10;;;18.46;36.84
78409;BME280;67697;50.750;-3.270;2023-06-04T10:54:27;101619.73;;;18.67;34.45
78409;BME280;67697;50.750;-3.270;2023-06-04T10:56:53;101617.38;;;18.70;35.01
78409;BME280;67697;50.750;-3.270;2023-06-04T10:59:18;101616.53;;;18.98;35.59
78409;BME280;67697;50.750;-3.270;2023-06-04T11:01:44;101614.35;;;18.68;34.23
78409;BME280;67697;50.750;-3.270;2023-06-04T11:04:19;101618.80;;;18.79;35.21
78409;BME280;67697;50.750;-3.270;2023-06-04T11:06:34;101611.56;;;18.67;35.23
78409;BME280;67697;50.750;-3.270;2023-06-04T11:09:04;101622.23;;;19.66;34.41
78409;BME280;67697;50.750;-3.270;2023-06-04T11:11:25;101618.19;;;18.80;34.34
78409;BME280;67697;50.750;-3.270;2023-06-04T11:13:50;101617.53;;;18.62;33.96
78409;BME280;67697;50.750;-3.270;2023-06-04T11:16:16;101621.37;;;19.16;33.37
78409;BME280;67697;50.750;-3.270;2023-06-04T11:18:41;101620.32;;;18.84;34.62
78409;BME280;67697;50.750;-3.270;2023-06-04T11:21:07;101617.81;;;19.08;35.41
78409;BME280;67697;50.750;-3.270;2023-06-04T11:23:33;101617.09;;;19.50;35.44
78409;BME280;67697;50.750;-3.270;2023-06-04T11:25:58;101623.06;;;19.28;32.91
78409;BME280;67697;50.750;-3.270;2023-06-04T11:28:23;101616.87;;;20.12;31.90
78409;BME280;67697;50.750;-3.270;2023-06-04T11:30:57;101620.49;;;20.15;32.45
78409;BME280;67697;50.750;-3.270;2023-06-04T11:33:14;101623.84;;;19.50;32.73
78409;BME280;67697;50.750;-3.270;2023-06-04T11:35:41;101620.35;;;19.16;34.34
78409;BME280;67697;50.750;-3.270;2023-06-04T11:38:05;101621.98;;;19.19;34.56
78409;BME280;67697;50.750;-3.270;2023-06-04T11:40:31;101611.27;;;20.48;30.82
78409;BME280;67697;50.750;-3.270;2023-06-04T11:42:56;101611.10;;;20.57;30.79
78409;BME280;67697;50.750;-3.270;2023-06-04T11:45:22;101613.96;;;20.16;32.09
78409;BME280;67697;50.750;-3.270;2023-06-04T11:47:48;101619.09;;;19.53;33.24
78409;BME280;67697;50.750;-3.270;2023-06-04T11:50:13;101610.31;;;19.35;33.00
78409;BME280;67697;50.750;-3.270;2023-06-04T11:52:39;101608.10;;;19.96;33.35
78409;BME280;67697;50.750;-3.270;2023-06-04T11:55:07;101607.65;;;19.47;33.51
78409;BME280;67697;50.750;-3.270;2023-06-04T11:57:30;101607.93;;;19.17;33.72
78409;BME280;67697;50.750;-3.270;2023-06-04T11:59:55;101603.08;;;20.23;31.66
78409;BME280;67697;50.750;-3.270;2023-06-04T12:02:20;101602.07;;;19.60;33.42
78409;BME280;67697;50.750;-3.270;2023-06-04T12:04:46;101590.15;;;20.34;32.52
78409;BME280;67697;50.750;-3.270;2023-06-04T12:07:11;101593.27;;;20.32;33.17
78409;BME280;67697;50.750;-3.270;2023-06-04T12:09:37;101591.34;;;21.14;31.60
78409;BME280;67697;50.750;-3.270;2023-06-04T12:12:04;101595.91;;;19.65;34.19
78409;BME280;67697;50.750;-3.270;2023-06-04T12:14:28;101592.85;;;19.70;33.15
78409;BME280;67697;50.750;-3.270;2023-06-04T12:16:57;101589.73;;;20.03;32.71
78409;BME280;67697;50.750;-3.270;2023-06-04T12:19:19;101582.29;;;20.72;32.25
78409;BME280;67697;50.750;-3.270;2023-06-04T12:21:44;101578.07;;;20.66;31.19
78409;BME280;67697;50.750;-3.270;2023-06-04T12:24:11;101586.19;;;20.05;33.15
78409;BME280;67697;50.750;-3.270;2023-06-04T12:26:35;101580.36;;;19.67;33.59
78409;BME280;67697;50.750;-3.270;2023-06-04T12:29:01;101571.10;;;21.44;29.88
78409;BME280;67697;50.750;-3.270;2023-06-04T12:31:26;101577.38;;;21.29;29.79